DABC/CZL METAR and TAF weather

Enter ICAO airport designator
Station Type Date Time Source
DABC METAR 2020/10/22 03:00 UTC NOAA

DABC 220300Z VRB01KT CAVOK 09/01 Q1022


Station Type Date Time Source
DABC Decoded METAR 2020/10/22 03:00 UTC NOAA

Constantine, Algeria (DABC) 36-17N 006-37E 694M
Oct 21, 2020 - 11:00 PM EDT / 2020.10.22 0300 UTC
Wind: Variable at 1 MPH (1 KT):0
Visibility: greater than 7 mile(s):0
Temperature: 48 F (9 C)
Dew Point: 33 F (1 C)
Relative Humidity: 57%
Pressure (altimeter): 30.18 in. Hg (1022 hPa)
ob: DABC 220300Z VRB01KT CAVOK 09/01 Q1022
cycle: 3

Station Type Date Time Source
DABC TAF 2020/10/21 18:40 UTC NOAA

TAF DABC 211700Z 2118/2218 20008KT CAVOK

Example: see airport list